Terminal Aerodrome Forecast
Issued by NWS Bismarck, ND

Home | Current Version | Previous Version | Graphics & Text | Print | Product List | Glossary On
Versions: 1 2 3 4 5 6 7 8 9 10 11 12 13 14 15 16
000
FTUS43 KBIS 141100
TAFISN
TAF
KISN 141131Z 1412/1512 36007KT P6SM SCT035 BKN050
     FM141500 36005KT P6SM SCT025 OVC050
     FM141700 33008KT P6SM SCT050
     FM150000 19005KT P6SM SKC
     FM150600 14006KT P6SM SCT070=

USA.gov is the U.S. government's official web portal to all federal, state and local government web resources and services.